Time;durP1;ratioP1;P1;durP2;ratioP2;P2;SDS_P1;SDS_P2;PMS_P1;PMS_P2;Temp;Humidity;BMP_temperature;BMP_pressure;BME280_temperature;BME280_humidity;BME280_pressure;Samples;Min_cycle;Max_cycle;Signal;HPM_P1;HPM_P2
2021/07/24 00:01:14;;;;;;;;;11.00;10.00;;;;;31.09;25.85;100780.28;144225;584;131016;-65
2021/07/24 00:04:07;;;;;;;;;9.25;9.00;;;;;31.05;25.88;100773.53;144257;608;131020;-66
2021/07/24 00:07:02;;;;;;;;;13.75;11.00;;;;;30.76;26.39;100779.53;144228;619;132010;-67
2021/07/24 00:09:54;;;;;;;;;9.75;9.75;;;;;30.64;26.47;100774.47;144261;699;131020;-66
2021/07/24 00:12:46;;;;;;;;;9.75;9.25;;;;;30.54;26.75;100782.81;144240;608;131912;-67
2021/07/24 00:15:39;;;;;;;;;9.75;9.25;;;;;30.30;27.12;100777.41;144261;594;132008;-64
2021/07/24 00:18:31;;;;;;;;;10.25;10.25;;;;;30.64;26.76;100773.66;144238;604;132010;-64
2021/07/24 00:21:24;;;;;;;;;11.75;8.75;;;;;30.93;26.55;100769.47;144252;637;131020;-65
2021/07/24 00:24:16;;;;;;;;;10.25;8.25;;;;;31.00;26.69;100759.63;144233;629;131912;-66
2021/07/24 00:27:11;;;;;;;;;9.75;9.75;;;;;31.06;26.01;100769.81;144248;667;131021;-63
2021/07/24 00:30:04;;;;;;;;;12.75;12.75;;;;;30.97;26.43;100749.97;144227;658;132010;-65
2021/07/24 00:32:55;;;;;;;;;14.50;11.00;;;;;30.99;26.82;100766.06;144261;580;131020;-66
2021/07/24 00:35:48;;;;;;;;;11.00;11.00;;;;;30.64;27.20;100760.94;144227;661;131017;-67
2021/07/24 00:38:43;;;;;;;;;10.75;9.75;;;;;30.94;26.71;100768.47;144254;613;131020;-65
2021/07/24 00:41:48;;;;;;;;;9.50;9.50;;;;;30.93;26.81;100770.31;144236;620;131913;-64
2021/07/24 00:44:45;;;;;;;;;9.75;9.75;;;;;30.83;27.38;100767.81;144260;599;132008;-66
2021/07/24 00:47:41;;;;;;;;;11.00;10.25;;;;;30.97;27.58;100773.53;144238;578;132010;-65
2021/07/24 00:50:33;;;;;;;;;12.00;10.25;;;;;31.15;26.79;100771.47;144250;595;131021;-64
2021/07/24 00:53:34;;;;;;;;;10.50;9.25;;;;;31.14;26.54;100772.47;144228;696;131016;-65
2021/07/24 00:56:29;;;;;;;;;11.00;11.00;;;;;30.96;26.68;100766.41;144251;619;132008;-65
2021/07/24 00:59:21;;;;;;;;;9.00;9.00;;;;;31.13;26.86;100765.34;144222;602;132010;-69
2021/07/24 01:02:13;;;;;;;;;11.00;10.25;;;;;31.13;27.23;100767.22;144267;563;131020;-67
2021/07/24 01:05:08;;;;;;;;;10.50;9.00;;;;;31.09;27.27;100766.72;144230;599;131913;-69
2021/07/24 01:08:00;;;;;;;;;9.75;9.75;;;;;31.03;27.67;100767.47;144259;625;132008;-66
2021/07/24 01:10:54;;;;;;;;;10.00;10.00;;;;;31.16;28.23;100772.28;144233;569;131017;-70
2021/07/24 01:13:46;;;;;;;;;12.00;12.00;;;;;31.20;27.79;100762.78;144257;684;131021;-68
2021/07/24 01:16:38;;;;;;;;;9.50;9.50;;;;;30.99;28.05;100766.91;144219;596;132012;-69
2021/07/24 01:19:31;;;;;;;;;11.50;11.50;;;;;30.69;28.57;100771.25;144257;607;132008;-68
2021/07/24 01:22:23;;;;;;;;;15.75;14.00;;;;;30.62;28.37;100768.41;144218;594;132010;-67
2021/07/24 01:25:16;;;;;;;;;12.75;12.25;;;;;30.63;28.34;100767.34;144243;605;132008;-67
2021/07/24 01:28:08;;;;;;;;;9.75;9.75;;;;;30.73;28.38;100775.31;144217;602;132913;-66
2021/07/24 01:31:00;;;;;;;;;9.50;9.50;;;;;30.65;28.82;100768.03;144263;586;131020;-68
2021/07/24 01:33:53;;;;;;;;;13.25;11.50;;;;;30.53;28.78;100772.13;144237;565;131016;-66
2021/07/24 01:36:45;;;;;;;;;10.25;9.25;;;;;30.82;28.59;100768.81;144259;570;132012;-66
2021/07/24 01:39:38;;;;;;;;;9.00;9.00;;;;;30.82;28.48;100773.41;144233;636;131016;-66
2021/07/24 01:42:30;;;;;;;;;9.50;9.25;;;;;30.76;28.38;100779.53;144259;615;132002;-66
2021/07/24 01:45:22;;;;;;;;;8.00;8.00;;;;;30.64;28.67;100787.19;144241;617;131016;-66
2021/07/24 01:48:17;;;;;;;;;11.75;11.75;;;;;30.88;28.17;100787.13;144257;589;132008;-65
2021/07/24 01:54:29;;;;;;;;;15.75;13.50;;;;;30.83;28.22;100786.78;144250;572;131020;-66
2021/07/24 01:57:24;;;;;;;;;13.00;13.00;;;;;30.76;28.56;100776.84;144215;577;132010;-65
2021/07/24 02:00:16;;;;;;;;;10.25;10.25;;;;;30.57;29.06;100780.78;144247;586;132008;-66
2021/07/24 02:03:15;;;;;;;;;13.00;11.25;;;;;30.26;29.18;100781.47;144220;623;132010;-66
2021/07/24 02:06:08;;;;;;;;;9.25;9.25;;;;;30.26;29.00;100782.28;144256;602;131020;-67
2021/07/24 02:09:00;;;;;;;;;11.75;10.50;;;;;30.31;29.22;100779.94;144233;587;132010;-66
2021/07/24 02:11:52;;;;;;;;;8.75;8.75;;;;;30.33;29.30;100774.34;144254;564;132008;-66
2021/07/24 02:14:45;;;;;;;;;10.25;10.25;;;;;30.63;28.67;100772.78;144231;601;132010;-66
2021/07/24 02:17:40;;;;;;;;;14.50;13.00;;;;;30.71;28.58;100771.91;144248;565;132008;-65
2021/07/24 02:20:34;;;;;;;;;9.25;9.25;;;;;30.67;28.66;100770.59;144217;612;132012;-65
2021/07/24 02:23:26;;;;;;;;;12.25;12.25;;;;;30.63;28.53;100783.63;144246;600;132008;-67
2021/07/24 02:26:18;;;;;;;;;10.25;10.25;;;;;30.62;28.62;100789.22;144222;614;132013;-65
2021/07/24 02:29:10;;;;;;;;;8.25;8.25;;;;;30.58;28.96;100790.56;144258;614;131021;-67
2021/07/24 02:32:03;;;;;;;;;12.25;12.25;;;;;30.60;28.79;100786.69;144235;701;131016;-66
2021/07/24 02:34:55;;;;;;;;;11.00;11.00;;;;;30.61;29.13;100779.41;144252;592;131021;-67
2021/07/24 02:37:48;;;;;;;;;9.00;9.00;;;;;30.28;29.44;100785.69;144222;607;132010;-67
2021/07/24 02:40:40;;;;;;;;;17.75;13.75;;;;;30.03;29.76;100783.00;144262;599;131021;-66
2021/07/24 02:43:32;;;;;;;;;11.00;11.00;;;;;29.92;29.93;100783.31;144225;604;132010;-66
2021/07/24 02:46:24;;;;;;;;;8.25;8.25;;;;;29.76;30.69;100778.72;144250;655;131026;-65
2021/07/24 02:49:17;;;;;;;;;12.50;11.00;;;;;30.36;29.58;100782.13;144229;586;132011;-65
2021/07/24 02:52:09;;;;;;;;;13.00;13.00;;;;;30.47;29.15;100789.06;144248;586;132020;-65
2021/07/24 02:55:01;;;;;;;;;11.00;10.25;;;;;30.19;30.28;100792.94;144228;585;131913;-65
2021/07/24 02:57:54;;;;;;;;;8.25;8.25;;;;;30.54;29.60;100796.34;144255;636;132008;-65
2021/07/24 03:00:46;;;;;;;;;12.50;11.50;;;;;30.84;29.22;100806.63;144227;565;132016;-65
2021/07/24 03:03:39;;;;;;;;;11.00;10.00;;;;;30.97;28.80;100801.47;144255;598;131020;-67
2021/07/24 03:06:31;;;;;;;;;11.50;11.50;;;;;30.98;28.51;100810.47;144220;599;131019;-65
2021/07/24 03:09:23;;;;;;;;;9.75;9.75;;;;;30.87;28.47;100806.25;144255;610;131020;-66
2021/07/24 03:12:18;;;;;;;;;12.25;10.25;;;;;30.82;28.73;100801.34;144243;663;131036;-66
2021/07/24 03:15:10;;;;;;;;;12.25;9.75;;;;;30.82;28.81;100793.22;144258;641;131020;-66
2021/07/24 03:18:03;;;;;;;;;11.25;11.25;;;;;30.85;28.91;100801.03;144232;597;131913;-65
2021/07/24 03:20:55;;;;;;;;;13.75;13.25;;;;;30.88;28.70;100806.09;144245;621;131021;-65
2021/07/24 03:23:47;;;;;;;;;11.50;11.50;;;;;30.90;28.58;100808.62;144224;577;131912;-65
2021/07/24 03:26:40;;;;;;;;;12.25;11.25;;;;;30.74;28.96;100809.50;144255;720;131021;-65
2021/07/24 03:29:32;;;;;;;;;9.25;9.25;;;;;30.83;28.97;100807.63;144226;571;131016;-65
2021/07/24 03:32:24;;;;;;;;;12.75;12.75;;;;;30.95;28.93;100810.78;144268;714;131021;-64
2021/07/24 03:35:17;;;;;;;;;15.00;11.50;;;;;30.94;28.95;100817.25;144226;656;131012;-66
2021/07/24 03:38:10;;;;;;;;;10.00;8.50;;;;;30.90;28.97;100808.62;144259;690;131012;-65
2021/07/24 03:41:02;;;;;;;;;11.00;11.00;;;;;31.08;28.89;100811.13;144243;613;131016;-64
2021/07/24 03:43:54;;;;;;;;;10.50;10.50;;;;;31.27;29.05;100811.72;144255;595;131020;-65
2021/07/24 03:46:46;;;;;;;;;13.00;12.00;;;;;31.40;28.43;100820.16;144223;580;131016;-66
2021/07/24 03:49:38;;;;;;;;;13.50;13.25;;;;;30.99;29.00;100814.84;144254;566;131012;-65
2021/07/24 03:52:31;;;;;;;;;13.75;12.00;;;;;30.90;29.23;100816.75;144229;603;131912;-66
2021/07/24 03:55:23;;;;;;;;;14.25;12.00;;;;;30.92;29.32;100816.56;144262;595;131008;-65
2021/07/24 03:58:15;;;;;;;;;10.50;10.00;;;;;31.00;29.23;100824.69;144229;610;131912;-65
2021/07/24 04:01:10;;;;;;;;;13.00;12.25;;;;;30.88;29.65;100821.50;144262;569;131012;-66
2021/07/24 04:04:02;;;;;;;;;14.00;13.25;;;;;30.78;29.24;100829.81;144228;574;131017;-65
2021/07/24 04:06:57;;;;;;;;;16.25;12.00;;;;;30.83;29.86;100830.16;144261;598;131008;-66
2021/07/24 04:09:50;;;;;;;;;11.50;11.50;;;;;30.84;29.92;100826.44;144233;586;131017;-66
2021/07/24 04:12:42;;;;;;;;;9.25;9.25;;;;;30.91;30.00;100831.13;144261;641;131020;-65
2021/07/24 04:15:38;;;;;;;;;15.00;13.00;;;;;30.93;30.41;100829.94;144237;568;131912;-66
2021/07/24 04:18:33;;;;;;;;;12.25;12.25;;;;;30.88;30.31;100843.19;144255;665;131012;-64
2021/07/24 04:21:25;;;;;;;;;11.00;10.75;;;;;30.79;30.70;100842.34;144231;673;131912;-65
2021/07/24 04:24:18;;;;;;;;;13.25;12.75;;;;;30.81;30.77;100842.16;144262;649;131020;-64
2021/07/24 04:27:11;;;;;;;;;11.00;11.00;;;;;30.77;30.83;100841.69;144232;590;131016;-66
2021/07/24 04:30:03;;;;;;;;;12.75;11.25;;;;;30.85;30.92;100838.09;144256;617;131012;-63
2021/07/24 04:32:56;;;;;;;;;14.50;13.50;;;;;31.02;31.01;100847.03;144227;590;131017;-66
2021/07/24 04:35:52;;;;;;;;;13.75;12.50;;;;;31.10;31.02;100841.63;144259;616;131020;-68
2021/07/24 04:38:46;;;;;;;;;13.75;12.25;;;;;30.97;30.98;100847.56;144232;598;131016;-67
2021/07/24 04:41:38;;;;;;;;;11.25;11.00;;;;;30.92;31.34;100858.09;144256;681;131020;-66
2021/07/24 04:44:30;;;;;;;;;12.75;11.75;;;;;31.15;31.27;100855.50;144229;595;131016;-68
2021/07/24 04:47:22;;;;;;;;;12.00;12.00;;;;;31.34;31.07;100858.81;144251;602;131021;-68
2021/07/24 04:50:15;;;;;;;;;14.75;12.75;;;;;31.53;31.18;100858.38;144227;579;131016;-63
2021/07/24 04:53:07;;;;;;;;;12.75;12.75;;;;;31.54;31.31;100860.06;144252;606;132008;-66
2021/07/24 04:56:00;;;;;;;;;14.00;12.00;;;;;31.56;31.36;100858.03;144222;574;131017;-67
2021/07/24 04:58:53;;;;;;;;;12.25;12.25;;;;;31.77;31.10;100856.59;144252;580;131020;-67
2021/07/24 05:01:45;;;;;;;;;16.75;15.50;;;;;31.96;31.21;100859.84;144227;569;131913;-67
2021/07/24 05:04:37;;;;;;;;;13.75;11.00;;;;;32.05;30.75;100866.94;144249;600;131020;-66
2021/07/24 05:07:29;;;;;;;;;17.50;16.50;;;;;32.07;29.86;100859.47;144222;628;132010;-66
2021/07/24 05:10:22;;;;;;;;;13.50;12.25;;;;;32.19;29.84;100858.03;144243;679;132012;-66
2021/07/24 05:13:14;;;;;;;;;13.75;13.75;;;;;32.34;30.15;100851.78;144222;602;132012;-69
2021/07/24 05:16:06;;;;;;;;;13.00;13.00;;;;;32.40;30.00;100860.06;144243;581;132008;-69
2021/07/24 05:19:00;;;;;;;;;13.75;13.75;;;;;32.35;30.00;100856.22;144220;616;132012;-66
2021/07/24 05:21:52;;;;;;;;;17.00;15.25;;;;;32.43;29.03;100858.00;144244;577;132008;-69
2021/07/24 05:24:46;;;;;;;;;11.75;11.75;;;;;32.23;29.20;100856.66;144226;564;131016;-66
2021/07/24 05:27:38;;;;;;;;;15.25;15.00;;;;;32.32;29.34;100851.97;144257;573;131008;-66
2021/07/24 05:30:30;;;;;;;;;16.00;14.00;;;;;32.18;29.71;100850.91;144233;564;131017;-69
2021/07/24 05:33:22;;;;;;;;;12.50;12.00;;;;;32.22;29.34;100856.84;144257;640;131021;-68
2021/07/24 05:36:15;;;;;;;;;17.00;13.50;;;;;32.06;29.82;100852.34;144232;565;131016;-68
2021/07/24 05:39:07;;;;;;;;;15.00;15.00;;;;;32.00;29.85;100855.75;144258;578;131021;-67
2021/07/24 05:41:59;;;;;;;;;14.25;13.25;;;;;32.12;30.24;100857.03;144225;573;131018;-66
2021/07/24 05:44:51;;;;;;;;;16.25;15.00;;;;;32.07;30.36;100851.31;144252;702;131020;-66
2021/07/24 05:47:44;;;;;;;;;15.00;13.50;;;;;32.06;30.53;100855.03;144223;606;131017;-66
2021/07/24 05:50:36;;;;;;;;;13.00;12.50;;;;;32.15;30.60;100853.13;144256;678;132008;-69
2021/07/24 05:53:28;;;;;;;;;15.25;14.00;;;;;32.23;30.38;100862.06;144227;566;131017;-68
2021/07/24 05:56:20;;;;;;;;;19.00;16.25;;;;;32.25;30.56;100861.03;144245;610;132012;-66
2021/07/24 05:59:13;;;;;;;;;17.75;14.75;;;;;32.28;30.02;100860.69;144228;611;131913;-68
2021/07/24 06:02:08;;;;;;;;;11.75;11.75;;;;;32.23;30.13;100866.66;144253;646;132012;-67
2021/07/24 06:05:00;;;;;;;;;18.00;17.50;;;;;32.27;30.06;100872.56;144229;573;131912;-65
2021/07/24 06:07:52;;;;;;;;;19.00;16.75;;;;;32.48;30.40;100877.31;144257;565;131021;-66
2021/07/24 06:10:44;;;;;;;;;20.25;16.75;;;;;32.75;29.04;100873.19;144225;580;131912;-66
2021/07/24 06:13:37;;;;;;;;;17.00;16.50;;;;;32.60;29.56;100875.00;144246;609;131020;-67
2021/07/24 06:16:29;;;;;;;;;18.00;15.75;;;;;32.39;30.16;100877.37;144226;610;131017;-66
2021/07/24 06:19:21;;;;;;;;;16.75;16.50;;;;;32.48;30.30;100864.59;144249;713;132008;-66
2021/07/24 06:22:14;;;;;;;;;16.00;16.00;;;;;32.79;29.56;100869.06;144225;583;132023;-66
2021/07/24 06:25:06;;;;;;;;;13.25;13.25;;;;;32.82;29.30;100871.44;144254;563;132012;-66
2021/07/24 06:27:58;;;;;;;;;16.75;16.00;;;;;32.65;29.69;100872.59;144226;575;131016;-66
2021/07/24 06:30:51;;;;;;;;;11.50;11.50;;;;;32.45;30.67;100872.25;144256;743;131021;-66
2021/07/24 06:33:43;;;;;;;;;15.25;15.00;;;;;32.62;30.58;100878.38;144227;680;132012;-67
2021/07/24 06:36:39;;;;;;;;;14.75;14.75;;;;;32.81;29.34;100871.63;144255;591;131020;-67
2021/07/24 06:39:31;;;;;;;;;17.00;17.00;;;;;32.20;30.04;100870.56;144226;627;132010;-67
2021/07/24 06:42:23;;;;;;;;;23.00;19.25;;;;;33.03;29.41;100869.84;144247;571;131020;-67
2021/07/24 06:45:16;;;;;;;;;16.75;15.75;;;;;33.38;29.48;100881.88;144222;596;132012;-66
2021/07/24 06:48:09;;;;;;;;;17.25;16.50;;;;;33.93;28.73;100877.91;144251;622;132008;-67
2021/07/24 06:51:01;;;;;;;;;12.00;12.00;;;;;33.31;29.53;100877.34;144226;686;131912;-66
2021/07/24 06:53:53;;;;;;;;;11.75;11.75;;;;;31.83;32.24;100874.88;144254;612;131021;-66
2021/07/24 06:56:47;;;;;;;;;16.00;15.75;;;;;32.30;31.49;100869.47;144225;719;131016;-68
2021/07/24 06:59:39;;;;;;;;;16.25;16.00;;;;;31.68;32.38;100871.22;144256;569;131021;-66
2021/07/24 07:02:31;;;;;;;;;14.75;14.75;;;;;31.46;33.34;100879.09;144231;620;132028;-67
2021/07/24 07:05:23;;;;;;;;;16.75;14.75;;;;;31.25;33.63;100865.28;144259;573;131013;-66
2021/07/24 07:08:16;;;;;;;;;12.50;12.50;;;;;32.12;32.54;100858.91;144225;569;132010;-66
2021/07/24 07:11:09;;;;;;;;;16.25;16.25;;;;;31.36;33.70;100863.03;144248;565;131020;-66
2021/07/24 07:14:01;;;;;;;;;15.75;15.50;;;;;31.16;34.39;100869.91;144222;758;132010;-67
2021/07/24 07:16:54;;;;;;;;;14.50;13.75;;;;;31.21;34.75;100862.94;144256;609;131020;-67
2021/07/24 07:19:46;;;;;;;;;12.25;11.50;;;;;30.69;36.26;100863.38;144223;585;131016;-67
2021/07/24 07:22:41;;;;;;;;;15.25;14.25;;;;;32.08;33.63;100861.13;144259;586;132008;-68
2021/07/24 07:25:33;;;;;;;;;15.00;15.00;;;;;32.14;33.14;100862.28;144229;611;131912;-66
2021/07/24 07:28:25;;;;;;;;;15.50;14.00;;;;;33.06;31.96;100862.12;144247;624;132008;-66
2021/07/24 07:31:18;;;;;;;;;13.00;12.00;;;;;33.24;32.23;100860.94;144217;588;132012;-68
2021/07/24 07:34:10;;;;;;;;;13.25;12.75;;;;;32.90;32.57;100865.91;144254;605;131020;-67
2021/07/24 07:37:02;;;;;;;;;15.50;15.50;;;;;33.01;32.71;100866.44;144219;630;132012;-67
2021/07/24 07:39:54;;;;;;;;;13.00;13.00;;;;;32.98;32.70;100864.13;144243;701;132008;-67
2021/07/24 07:42:47;;;;;;;;;11.75;11.75;;;;;32.94;32.70;100870.97;144223;605;131912;-67
2021/07/24 07:45:40;;;;;;;;;13.75;12.25;;;;;31.86;34.69;100869.09;144252;656;132008;-67
2021/07/24 07:48:36;;;;;;;;;14.00;11.75;;;;;30.83;36.45;100870.78;144215;574;133912;-67
2021/07/24 07:51:29;;;;;;;;;12.00;12.00;;;;;32.53;34.45;100870.31;144256;602;132012;-66
2021/07/24 07:54:21;;;;;;;;;12.25;12.25;;;;;32.75;33.56;100870.47;144216;591;132010;-67
2021/07/24 07:57:13;;;;;;;;;12.00;12.00;;;;;33.21;32.87;100870.28;144246;571;132013;-67
2021/07/24 08:00:05;;;;;;;;;11.50;11.50;;;;;33.95;31.28;100867.69;144229;569;131913;-66
2021/07/24 08:03:00;;;;;;;;;14.25;14.25;;;;;34.03;31.07;100868.38;144258;639;132008;-67
2021/07/24 08:05:52;;;;;;;;;11.75;11.75;;;;;33.82;31.48;100871.09;144225;707;131912;-67
2021/07/24 08:08:44;;;;;;;;;15.50;13.50;;;;;34.48;30.84;100865.47;144248;569;131020;-68
2021/07/24 08:11:37;;;;;;;;;14.50;13.75;;;;;32.61;33.22;100873.97;144218;603;132010;-67
2021/07/24 08:14:29;;;;;;;;;13.50;13.50;;;;;33.86;31.50;100873.25;144257;566;131021;-65
2021/07/24 08:17:21;;;;;;;;;12.75;12.00;;;;;34.08;31.55;100867.81;144219;563;132012;-66
2021/07/24 08:20:15;;;;;;;;;14.25;14.25;;;;;32.91;32.46;100872.16;144258;689;131021;-66
2021/07/24 08:23:08;;;;;;;;;13.50;12.25;;;;;33.33;32.52;100887.03;144224;615;131017;-66
2021/07/24 08:26:00;;;;;;;;;12.50;12.50;;;;;33.50;31.72;100882.19;144258;624;132008;-66
2021/07/24 08:28:53;;;;;;;;;14.00;14.00;;;;;33.62;31.40;100877.13;144222;576;132010;-67
2021/07/24 08:31:45;;;;;;;;;12.00;11.00;;;;;33.34;31.44;100877.84;144257;612;131020;-66
2021/07/24 08:34:37;;;;;;;;;11.75;11.75;;;;;32.03;34.02;100880.69;144222;577;132010;-66
2021/07/24 08:37:29;;;;;;;;;11.75;10.50;;;;;32.10;33.67;100879.97;144246;572;131044;-66
2021/07/24 08:40:22;;;;;;;;;12.00;11.50;;;;;31.61;34.56;100871.09;144220;605;132010;-66
2021/07/24 08:43:14;;;;;;;;;14.00;12.50;;;;;32.94;32.32;100870.97;144255;588;131021;-67
2021/07/24 08:46:06;;;;;;;;;15.75;14.25;;;;;32.78;31.49;100875.53;144220;633;131912;-67
2021/07/24 08:48:58;;;;;;;;;12.75;12.75;;;;;33.92;30.18;100873.50;144257;584;132008;-66
2021/07/24 08:51:54;;;;;;;;;10.75;9.75;;;;;33.23;31.20;100868.25;144218;590;132010;-67
2021/07/24 08:54:46;;;;;;;;;5.00;5.00;;;;;33.05;30.92;100874.06;144268;693;131020;-66
2021/07/24 08:57:44;;;;;;;;;11.00;11.00;;;;;34.08;28.90;100863.19;144235;599;132012;-67
2021/07/24 09:00:37;;;;;;;;;10.50;9.25;;;;;33.73;30.57;100859.44;144254;570;132008;-66
2021/07/24 09:03:31;;;;;;;;;13.00;11.75;;;;;32.68;31.11;100862.19;144234;569;131912;-66
2021/07/24 09:06:26;;;;;;;;;16.50;16.00;;;;;34.66;29.25;100870.41;144240;709;131021;-66
2021/07/24 09:09:22;;;;;;;;;13.00;12.25;;;;;34.24;28.93;100869.41;144226;614;131912;-67
2021/07/24 09:12:14;;;;;;;;;13.25;12.75;;;;;35.52;27.33;100863.81;144250;641;132008;-66
2021/07/24 09:15:09;;;;;;;;;14.75;11.50;;;;;35.79;27.04;100863.91;144221;730;131033;-67
2021/07/24 09:18:01;;;;;;;;;10.75;10.00;;;;;34.17;28.40;100863.91;144249;578;132008;-66
2021/07/24 09:20:54;;;;;;;;;14.75;14.00;;;;;34.72;28.67;100866.06;144227;645;131017;-67
2021/07/24 09:23:49;;;;;;;;;9.00;9.00;;;;;34.15;28.63;100863.25;144248;607;132012;-67
2021/07/24 09:26:41;;;;;;;;;10.25;10.25;;;;;33.83;28.33;100854.59;144236;630;132017;-66
2021/07/24 09:29:40;;;;;;;;;14.25;12.50;;;;;32.58;31.03;100855.34;144247;573;132012;-66
2021/07/24 09:32:33;;;;;;;;;12.75;12.00;;;;;33.20;29.98;100855.03;144229;591;131016;-67
2021/07/24 09:35:44;;;;;;;;;11.25;11.25;;;;;33.63;29.57;100853.47;144242;577;132008;-67
2021/07/24 09:38:39;;;;;;;;;11.50;11.50;;;;;33.29;30.00;100852.22;144220;602;132012;-67
2021/07/24 09:41:31;;;;;;;;;12.00;12.00;;;;;33.45;29.41;100845.72;144254;714;131020;-66
2021/07/24 09:44:36;;;;;;;;;10.50;9.50;;;;;32.80;29.88;100840.03;144227;588;131017;-67
2021/07/24 09:47:31;;;;;;;;;13.00;11.00;;;;;32.15;30.90;100840.41;144266;613;131020;-66
2021/07/24 09:50:24;;;;;;;;;8.75;8.75;;;;;32.01;31.38;100842.03;144230;564;132010;-68
2021/07/24 09:53:17;;;;;;;;;11.25;8.75;;;;;32.36;31.10;100855.19;144260;585;131020;-67
2021/07/24 09:56:13;;;;;;;;;9.25;8.75;;;;;32.98;30.29;100850.50;144236;745;132010;-66
2021/07/24 09:59:32;;;;;;;;;7.75;7.50;;;;;32.81;29.99;100847.97;144259;644;132008;-66
2021/07/24 10:02:34;;;;;;;;;13.75;13.75;;;;;32.52;30.90;100840.59;144237;596;132010;-66
2021/07/24 10:05:27;;;;;;;;;10.00;9.50;;;;;34.11;28.27;100840.19;144247;603;132008;-66
2021/07/24 10:08:20;;;;;;;;;9.75;8.75;;;;;34.11;28.24;100837.47;144222;631;132912;-67
2021/07/24 10:11:12;;;;;;;;;8.75;6.00;;;;;32.89;29.30;100842.44;144257;651;132008;-67
2021/07/24 10:14:05;;;;;;;;;12.00;10.00;;;;;33.37;28.70;100842.06;144229;612;132013;-66
2021/07/24 10:16:59;;;;;;;;;10.25;9.75;;;;;32.64;30.20;100839.09;144259;641;131020;-66
2021/07/24 10:19:52;;;;;;;;;11.25;10.00;;;;;32.13;29.88;100830.72;144236;611;131017;-67
2021/07/24 10:22:43;;;;;;;;;10.75;10.75;;;;;32.00;30.17;100836.75;144250;578;132012;-66
2021/07/24 10:26:20;;;;;;;;;6.00;6.00;;;;;32.15;30.43;100834.13;144233;610;131016;-66
2021/07/24 10:29:14;;;;;;;;;11.75;10.75;;;;;32.01;31.10;100830.31;144260;565;131020;-66
2021/07/24 10:32:15;;;;;;;;;7.50;7.50;;;;;32.17;30.12;100822.06;144229;573;131016;-69
2021/07/24 10:35:08;;;;;;;;;8.50;8.25;;;;;32.70;29.32;100824.00;144250;629;132009;-68
2021/07/24 10:38:00;;;;;;;;;8.75;8.75;;;;;33.82;27.65;100820.22;144228;564;132012;-68
2021/07/24 10:40:52;;;;;;;;;8.50;8.00;;;;;33.93;26.78;100820.72;144266;583;131020;-69
2021/07/24 10:44:04;;;;;;;;;9.00;7.75;;;;;33.48;26.70;100829.84;144228;581;132032;-69
2021/07/24 10:47:16;;;;;;;;;10.75;10.25;;;;;34.32;24.61;100822.16;144263;639;131020;-69
2021/07/24 10:50:09;;;;;;;;;11.25;10.00;;;;;34.12;25.61;100820.09;144222;636;132010;-68
2021/07/24 10:53:11;;;;;;;;;9.50;9.50;;;;;32.69;26.45;100827.69;144252;563;132008;-69
2021/07/24 10:56:04;;;;;;;;;12.25;12.25;;;;;32.81;28.53;100815.38;144238;652;133913;-68
2021/07/24 10:59:22;;;;;;;;;10.75;10.75;;;;;31.56;32.27;100803.78;144251;628;131020;-69
2021/07/24 11:02:15;;;;;;;;;9.50;9.50;;;;;31.35;32.02;100811.69;144220;587;132012;-68
2021/07/24 11:05:26;;;;;;;;;17.50;14.50;;;;;31.38;31.52;100814.03;144241;585;132008;-69
2021/07/24 11:08:19;;;;;;;;;11.50;11.25;;;;;31.30;30.79;100812.22;144219;578;132912;-69
2021/07/24 11:11:14;;;;;;;;;11.25;11.00;;;;;31.21;32.36;100811.41;144248;575;132008;-68
2021/07/24 11:14:06;;;;;;;;;11.75;9.75;;;;;31.81;31.02;100811.78;144214;563;133010;-68
2021/07/24 11:17:30;;;;;;;;;9.25;8.50;;;;;31.42;30.87;100809.94;144257;569;132012;-69
2021/07/24 11:20:26;;;;;;;;;12.50;12.50;;;;;31.79;30.97;100811.13;144236;700;131911;-67
2021/07/24 11:23:19;;;;;;;;;10.00;10.00;;;;;30.77;31.68;100809.19;144258;698;131020;-70
2021/07/24 11:26:12;;;;;;;;;13.00;12.00;;;;;31.10;31.60;100810.94;144227;588;131913;-69
2021/07/24 11:29:04;;;;;;;;;11.00;9.00;;;;;31.04;32.78;100810.66;144259;591;132008;-68
2021/07/24 11:31:56;;;;;;;;;8.75;8.75;;;;;30.96;32.41;100815.19;144233;666;131016;-68
2021/07/24 11:35:09;;;;;;;;;10.75;10.25;;;;;30.77;31.73;100822.72;144246;583;131012;-69
2021/07/24 11:38:02;;;;;;;;;10.00;10.00;;;;;30.92;31.10;100812.00;144225;593;131912;-69
2021/07/24 11:41:14;;;;;;;;;11.00;11.00;;;;;30.85;31.04;100806.44;144261;618;131009;-69
2021/07/24 11:44:06;;;;;;;;;8.50;8.50;;;;;30.72;31.71;100811.56;144229;564;131010;-69
2021/07/24 11:47:08;;;;;;;;;13.00;10.00;;;;;31.36;31.08;100802.53;144268;563;131021;-69
2021/07/24 11:50:22;;;;;;;;;10.75;10.75;;;;;31.22;30.85;100818.53;144232;579;131017;-69
2021/07/24 11:53:15;;;;;;;;;11.75;10.50;;;;;31.32;30.65;100815.59;144250;583;131020;-68
2021/07/24 11:56:12;;;;;;;;;9.50;9.50;;;;;31.87;30.71;100821.91;144228;577;132010;-69
2021/07/24 11:59:04;;;;;;;;;9.75;8.25;;;;;32.78;29.27;100823.91;144262;596;132012;-69
2021/07/24 12:01:56;;;;;;;;;9.00;9.00;;;;;32.62;29.65;100822.16;144236;575;131016;-68
2021/07/24 12:04:53;;;;;;;;;9.25;9.25;;;;;32.45;28.38;100820.63;144251;592;131020;-69
2021/07/24 12:07:46;;;;;;;;;9.00;9.00;;;;;32.91;28.72;100812.34;144225;576;134912;-68
2021/07/24 12:10:46;;;;;;;;;4.00;4.00;;;;;33.09;28.56;100787.50;144266;566;131021;-69
2021/07/24 12:13:38;;;;;;;;;5.25;5.00;;;;;32.67;28.58;100817.00;144236;578;131912;-70
2021/07/24 12:16:44;;;;;;;;;10.50;10.50;;;;;32.44;29.27;100805.34;144263;611;132013;-69
2021/07/24 12:19:46;;;;;;;;;6.75;6.75;;;;;32.14;31.04;100802.56;144223;717;131017;-69
2021/07/24 12:22:39;;;;;;;;;13.00;11.00;;;;;32.20;29.96;100810.81;144257;605;132008;-69
2021/07/24 12:25:31;;;;;;;;;11.75;10.75;;;;;32.16;30.37;100808.66;144231;606;132024;-68
2021/07/24 12:28:33;;;;;;;;;6.00;6.00;;;;;33.16;28.61;100791.16;144253;600;132008;-71
2021/07/24 12:31:33;;;;;;;;;8.50;8.50;;;;;33.07;28.54;100778.69;144234;578;131017;-67
2021/07/24 12:34:27;;;;;;;;;9.75;9.75;;;;;32.76;28.24;100792.50;144246;574;131021;-68
2021/07/24 12:37:33;;;;;;;;;9.00;9.00;;;;;32.88;28.02;100783.66;144229;575;131912;-67
2021/07/24 12:40:29;;;;;;;;;9.00;8.75;;;;;32.20;29.69;100782.84;144258;621;132008;-67
2021/07/24 12:43:22;;;;;;;;;12.00;12.00;;;;;31.91;30.59;100786.28;144234;620;131016;-69
2021/07/24 12:46:21;;;;;;;;;10.00;10.00;;;;;32.73;30.17;100796.44;144255;618;132027;-69
2021/07/24 12:49:13;;;;;;;;;5.25;5.25;;;;;31.99;30.80;100791.66;144225;574;131031;-68
2021/07/24 12:52:33;;;;;;;;;7.25;7.25;;;;;32.44;31.00;100778.19;144267;570;131020;-67
2021/07/24 12:55:26;;;;;;;;;9.50;9.50;;;;;32.56;30.27;100798.44;144238;586;132010;-68
2021/07/24 12:58:17;;;;;;;;;10.00;9.50;;;;;32.60;30.00;100788.03;144269;587;132008;-68
2021/07/24 13:01:17;;;;;;;;;9.75;9.75;;;;;32.20;30.07;100785.53;144235;672;131017;-68
2021/07/24 13:04:09;;;;;;;;;11.25;10.25;;;;;32.27;30.76;100781.06;144250;782;132008;-68
2021/07/24 13:07:06;;;;;;;;;12.50;12.25;;;;;31.95;30.09;100780.28;144225;572;131912;-69
2021/07/24 13:10:02;;;;;;;;;9.50;9.00;;;;;31.82;30.33;100791.78;144257;587;132008;-70